Terminal Aerodrome Forecast
Issued by NWS Binghamton, NY

Current Version | Previous Version | Text Only | Print | Product List | Glossary On
Versions: 1 2 3 4 5 6 7 8 9 10 11 12 13 14 15 16 17 18
494
FTUS41 KBGM 080859 AAA
TAFSYR
TAF AMD
KSYR 080859Z 0809/0906 23008KT P6SM OVC040
      TEMPO 0809/0811 -SN OVC030
     FM081500 25012G18KT P6SM OVC045
     FM090500 26014G20KT 2SM -SHSN OVC025=

USA.gov is the U.S. government's official web portal to all federal, state and local government web resources and services.